sensor_id;sensor_type;location;lat;lon;timestamp;P1;durP1;ratioP1;P2;durP2;ratioP2
10904;SDS011;5505;51.450;9.254;2024-02-21T00:01:44;9.23;;;3.83;;
10904;SDS011;5505;51.450;9.254;2024-02-21T00:04:31;14.27;;;4.50;;
10904;SDS011;5505;51.450;9.254;2024-02-21T00:07:18;13.00;;;4.77;;
10904;SDS011;5505;51.450;9.254;2024-02-21T00:10:05;13.50;;;4.87;;
10904;SDS011;5505;51.450;9.254;2024-02-21T00:12:54;15.07;;;4.30;;
10904;SDS011;5505;51.450;9.254;2024-02-21T00:15:42;12.05;;;4.82;;
10904;SDS011;5505;51.450;9.254;2024-02-21T00:18:29;11.40;;;4.10;;
10904;SDS011;5505;51.450;9.254;2024-02-21T00:21:15;13.67;;;4.87;;
10904;SDS011;5505;51.450;9.254;2024-02-21T00:24:04;12.53;;;4.57;;
10904;SDS011;5505;51.450;9.254;2024-02-21T00:26:51;9.47;;;4.40;;
10904;SDS011;5505;51.450;9.254;2024-02-21T00:29:39;12.03;;;4.43;;
10904;SDS011;5505;51.450;9.254;2024-02-21T00:32:27;12.03;;;4.00;;
10904;SDS011;5505;51.450;9.254;2024-02-21T00:35:14;11.77;;;4.87;;
10904;SDS011;5505;51.450;9.254;2024-02-21T00:38:01;10.27;;;4.10;;
10904;SDS011;5505;51.450;9.254;2024-02-21T00:40:48;14.17;;;4.50;;
10904;SDS011;5505;51.450;9.254;2024-02-21T00:43:35;8.87;;;4.80;;
10904;SDS011;5505;51.450;9.254;2024-02-21T00:46:21;12.57;;;4.60;;
10904;SDS011;5505;51.450;9.254;2024-02-21T00:49:09;10.47;;;4.60;;
10904;SDS011;5505;51.450;9.254;2024-02-21T00:51:56;11.27;;;4.23;;
10904;SDS011;5505;51.450;9.254;2024-02-21T00:54:43;15.23;;;4.87;;
10904;SDS011;5505;51.450;9.254;2024-02-21T00:57:30;14.57;;;4.87;;
10904;SDS011;5505;51.450;9.254;2024-02-21T01:00:17;10.90;;;4.00;;
10904;SDS011;5505;51.450;9.254;2024-02-21T01:03:04;16.80;;;4.57;;
10904;SDS011;5505;51.450;9.254;2024-02-21T01:05:53;12.07;;;4.90;;
10904;SDS011;5505;51.450;9.254;2024-02-21T01:08:39;13.73;;;4.90;;
10904;SDS011;5505;51.450;9.254;2024-02-21T01:11:26;11.83;;;4.20;;
10904;SDS011;5505;51.450;9.254;2024-02-21T01:14:13;9.30;;;4.23;;
10904;SDS011;5505;51.450;9.254;2024-02-21T01:17:00;9.70;;;4.57;;
10904;SDS011;5505;51.450;9.254;2024-02-21T01:19:47;9.90;;;4.33;;
10904;SDS011;5505;51.450;9.254;2024-02-21T01:22:35;12.60;;;5.30;;
10904;SDS011;5505;51.450;9.254;2024-02-21T01:25:22;10.30;;;4.80;;
10904;SDS011;5505;51.450;9.254;2024-02-21T01:28:09;11.93;;;4.83;;
10904;SDS011;5505;51.450;9.254;2024-02-21T01:30:56;8.50;;;5.00;;
10904;SDS011;5505;51.450;9.254;2024-02-21T01:33:43;9.17;;;5.07;;
10904;SDS011;5505;51.450;9.254;2024-02-21T01:36:30;14.93;;;5.80;;
10904;SDS011;5505;51.450;9.254;2024-02-21T01:39:18;11.27;;;5.70;;
10904;SDS011;5505;51.450;9.254;2024-02-21T01:42:04;10.77;;;5.83;;
10904;SDS011;5505;51.450;9.254;2024-02-21T01:44:51;11.10;;;5.77;;
10904;SDS011;5505;51.450;9.254;2024-02-21T01:47:38;14.63;;;6.33;;
10904;SDS011;5505;51.450;9.254;2024-02-21T01:50:25;12.67;;;6.93;;
10904;SDS011;5505;51.450;9.254;2024-02-21T01:53:12;11.87;;;6.67;;
10904;SDS011;5505;51.450;9.254;2024-02-21T01:56:05;14.83;;;7.13;;
10904;SDS011;5505;51.450;9.254;2024-02-21T01:58:53;11.87;;;6.80;;
10904;SDS011;5505;51.450;9.254;2024-02-21T02:01:41;15.40;;;6.87;;
10904;SDS011;5505;51.450;9.254;2024-02-21T02:04:28;13.63;;;6.83;;
10904;SDS011;5505;51.450;9.254;2024-02-21T02:07:15;16.47;;;7.30;;
10904;SDS011;5505;51.450;9.254;2024-02-21T02:10:02;13.40;;;7.13;;
10904;SDS011;5505;51.450;9.254;2024-02-21T02:12:50;16.43;;;6.70;;
10904;SDS011;5505;51.450;9.254;2024-02-21T02:15:38;13.57;;;7.07;;
10904;SDS011;5505;51.450;9.254;2024-02-21T02:18:25;11.10;;;6.20;;
10904;SDS011;5505;51.450;9.254;2024-02-21T02:21:13;15.20;;;7.10;;
10904;SDS011;5505;51.450;9.254;2024-02-21T02:24:10;14.87;;;7.60;;
10904;SDS011;5505;51.450;9.254;2024-02-21T02:26:59;11.60;;;6.90;;
10904;SDS011;5505;51.450;9.254;2024-02-21T02:29:46;11.53;;;6.53;;
10904;SDS011;5505;51.450;9.254;2024-02-21T02:32:33;11.43;;;6.43;;
10904;SDS011;5505;51.450;9.254;2024-02-21T02:35:20;13.13;;;6.87;;
10904;SDS011;5505;51.450;9.254;2024-02-21T02:38:06;12.47;;;6.77;;
10904;SDS011;5505;51.450;9.254;2024-02-21T02:40:54;11.67;;;6.80;;
10904;SDS011;5505;51.450;9.254;2024-02-21T02:43:41;11.17;;;6.87;;
10904;SDS011;5505;51.450;9.254;2024-02-21T02:46:28;10.33;;;6.57;;
10904;SDS011;5505;51.450;9.254;2024-02-21T02:49:15;10.47;;;6.30;;
10904;SDS011;5505;51.450;9.254;2024-02-21T02:52:02;12.50;;;6.43;;
10904;SDS011;5505;51.450;9.254;2024-02-21T02:54:49;11.03;;;6.70;;
10904;SDS011;5505;51.450;9.254;2024-02-21T02:57:38;10.83;;;6.50;;
10904;SDS011;5505;51.450;9.254;2024-02-21T03:00:26;10.73;;;6.03;;
10904;SDS011;5505;51.450;9.254;2024-02-21T03:03:13;14.87;;;7.07;;
10904;SDS011;5505;51.450;9.254;2024-02-21T03:06:00;10.23;;;5.90;;
10904;SDS011;5505;51.450;9.254;2024-02-21T03:08:47;11.23;;;6.30;;
10904;SDS011;5505;51.450;9.254;2024-02-21T03:11:34;13.77;;;6.40;;
10904;SDS011;5505;51.450;9.254;2024-02-21T03:14:23;11.33;;;6.13;;
10904;SDS011;5505;51.450;9.254;2024-02-21T03:17:10;12.63;;;5.93;;
10904;SDS011;5505;51.450;9.254;2024-02-21T03:19:57;12.50;;;6.70;;
10904;SDS011;5505;51.450;9.254;2024-02-21T03:22:45;12.57;;;7.10;;
10904;SDS011;5505;51.450;9.254;2024-02-21T03:25:31;10.10;;;5.97;;
10904;SDS011;5505;51.450;9.254;2024-02-21T03:28:18;11.97;;;6.37;;
10904;SDS011;5505;51.450;9.254;2024-02-21T03:31:06;10.23;;;6.00;;
10904;SDS011;5505;51.450;9.254;2024-02-21T03:33:53;9.83;;;6.63;;
10904;SDS011;5505;51.450;9.254;2024-02-21T03:36:40;12.07;;;6.27;;
10904;SDS011;5505;51.450;9.254;2024-02-21T03:39:27;11.33;;;6.67;;
10904;SDS011;5505;51.450;9.254;2024-02-21T03:42:16;11.27;;;6.20;;
10904;SDS011;5505;51.450;9.254;2024-02-21T03:45:04;13.10;;;7.73;;
10904;SDS011;5505;51.450;9.254;2024-02-21T03:47:53;11.77;;;6.80;;
10904;SDS011;5505;51.450;9.254;2024-02-21T03:50:39;12.97;;;6.80;;
10904;SDS011;5505;51.450;9.254;2024-02-21T03:53:26;10.70;;;6.50;;
10904;SDS011;5505;51.450;9.254;2024-02-21T03:56:13;14.77;;;6.63;;
10904;SDS011;5505;51.450;9.254;2024-02-21T03:59:00;13.63;;;6.53;;
10904;SDS011;5505;51.450;9.254;2024-02-21T04:01:46;11.73;;;6.40;;
10904;SDS011;5505;51.450;9.254;2024-02-21T04:04:42;11.80;;;6.07;;
10904;SDS011;5505;51.450;9.254;2024-02-21T04:07:31;14.37;;;6.10;;
10904;SDS011;5505;51.450;9.254;2024-02-21T04:10:18;11.63;;;6.10;;
10904;SDS011;5505;51.450;9.254;2024-02-21T04:13:05;12.13;;;5.93;;
10904;SDS011;5505;51.450;9.254;2024-02-21T04:15:53;12.30;;;6.50;;
10904;SDS011;5505;51.450;9.254;2024-02-21T04:18:40;11.33;;;6.57;;
10904;SDS011;5505;51.450;9.254;2024-02-21T04:21:28;11.40;;;5.53;;
10904;SDS011;5505;51.450;9.254;2024-02-21T04:24:15;12.80;;;5.57;;
10904;SDS011;5505;51.450;9.254;2024-02-21T04:27:01;11.80;;;6.37;;
10904;SDS011;5505;51.450;9.254;2024-02-21T04:29:48;12.47;;;6.10;;
10904;SDS011;5505;51.450;9.254;2024-02-21T04:32:35;12.00;;;7.17;;
10904;SDS011;5505;51.450;9.254;2024-02-21T04:35:22;11.97;;;6.83;;
10904;SDS011;5505;51.450;9.254;2024-02-21T04:38:10;10.77;;;6.43;;
10904;SDS011;5505;51.450;9.254;2024-02-21T04:40:57;12.93;;;6.57;;
10904;SDS011;5505;51.450;9.254;2024-02-21T04:43:45;17.67;;;6.87;;
10904;SDS011;5505;51.450;9.254;2024-02-21T04:46:32;10.57;;;6.03;;
10904;SDS011;5505;51.450;9.254;2024-02-21T04:49:19;15.37;;;6.23;;
10904;SDS011;5505;51.450;9.254;2024-02-21T04:52:06;14.77;;;6.90;;
10904;SDS011;5505;51.450;9.254;2024-02-21T04:54:54;15.43;;;7.00;;
10904;SDS011;5505;51.450;9.254;2024-02-21T04:57:41;12.93;;;6.30;;
10904;SDS011;5505;51.450;9.254;2024-02-21T05:00:28;14.37;;;7.03;;
10904;SDS011;5505;51.450;9.254;2024-02-21T05:03:14;13.47;;;7.23;;
10904;SDS011;5505;51.450;9.254;2024-02-21T05:06:01;12.77;;;7.30;;
10904;SDS011;5505;51.450;9.254;2024-02-21T05:08:48;17.87;;;7.73;;
10904;SDS011;5505;51.450;9.254;2024-02-21T05:11:36;13.77;;;8.30;;
10904;SDS011;5505;51.450;9.254;2024-02-21T05:14:23;15.10;;;7.40;;
10904;SDS011;5505;51.450;9.254;2024-02-21T05:17:11;12.30;;;6.90;;
10904;SDS011;5505;51.450;9.254;2024-02-21T05:19:58;12.77;;;6.83;;
10904;SDS011;5505;51.450;9.254;2024-02-21T05:22:45;15.97;;;8.07;;
10904;SDS011;5505;51.450;9.254;2024-02-21T05:25:32;14.17;;;6.77;;
10904;SDS011;5505;51.450;9.254;2024-02-21T05:28:20;15.20;;;7.13;;
10904;SDS011;5505;51.450;9.254;2024-02-21T05:31:07;16.33;;;7.40;;
10904;SDS011;5505;51.450;9.254;2024-02-21T05:33:53;10.87;;;6.60;;
10904;SDS011;5505;51.450;9.254;2024-02-21T05:36:40;12.90;;;6.83;;
10904;SDS011;5505;51.450;9.254;2024-02-21T05:39:27;11.30;;;6.33;;
10904;SDS011;5505;51.450;9.254;2024-02-21T05:42:14;13.13;;;6.57;;
10904;SDS011;5505;51.450;9.254;2024-02-21T05:45:02;14.53;;;6.40;;
10904;SDS011;5505;51.450;9.254;2024-02-21T05:47:50;9.93;;;6.10;;
10904;SDS011;5505;51.450;9.254;2024-02-21T05:50:36;10.90;;;6.43;;
10904;SDS011;5505;51.450;9.254;2024-02-21T05:53:23;12.43;;;6.60;;
10904;SDS011;5505;51.450;9.254;2024-02-21T05:56:10;14.07;;;6.27;;
10904;SDS011;5505;51.450;9.254;2024-02-21T05:58:57;9.43;;;6.47;;
10904;SDS011;5505;51.450;9.254;2024-02-21T06:01:45;11.03;;;6.50;;
10904;SDS011;5505;51.450;9.254;2024-02-21T06:04:42;14.43;;;6.50;;
10904;SDS011;5505;51.450;9.254;2024-02-21T06:07:31;13.40;;;6.40;;
10904;SDS011;5505;51.450;9.254;2024-02-21T06:10:18;14.20;;;6.63;;
10904;SDS011;5505;51.450;9.254;2024-02-21T06:13:05;11.67;;;6.30;;
10904;SDS011;5505;51.450;9.254;2024-02-21T06:15:51;12.73;;;7.03;;
10904;SDS011;5505;51.450;9.254;2024-02-21T06:18:40;9.77;;;6.10;;
10904;SDS011;5505;51.450;9.254;2024-02-21T06:21:28;12.50;;;6.90;;
10904;SDS011;5505;51.450;9.254;2024-02-21T06:24:15;12.97;;;6.63;;
10904;SDS011;5505;51.450;9.254;2024-02-21T06:27:02;11.40;;;6.30;;
10904;SDS011;5505;51.450;9.254;2024-02-21T06:29:51;11.57;;;6.77;;
10904;SDS011;5505;51.450;9.254;2024-02-21T06:32:37;11.10;;;6.63;;
10904;SDS011;5505;51.450;9.254;2024-02-21T06:35:25;11.03;;;6.13;;
10904;SDS011;5505;51.450;9.254;2024-02-21T06:38:12;10.20;;;6.53;;
10904;SDS011;5505;51.450;9.254;2024-02-21T06:41:00;14.27;;;7.77;;
10904;SDS011;5505;51.450;9.254;2024-02-21T06:43:48;10.93;;;6.07;;
10904;SDS011;5505;51.450;9.254;2024-02-21T06:46:34;10.23;;;6.50;;
10904;SDS011;5505;51.450;9.254;2024-02-21T06:49:21;11.30;;;6.47;;
10904;SDS011;5505;51.450;9.254;2024-02-21T06:52:09;11.67;;;5.60;;
10904;SDS011;5505;51.450;9.254;2024-02-21T06:54:56;12.97;;;6.50;;
10904;SDS011;5505;51.450;9.254;2024-02-21T06:57:43;9.50;;;6.07;;
10904;SDS011;5505;51.450;9.254;2024-02-21T07:00:30;14.97;;;6.10;;
10904;SDS011;5505;51.450;9.254;2024-02-21T07:03:17;11.27;;;6.47;;
10904;SDS011;5505;51.450;9.254;2024-02-21T07:06:04;10.97;;;5.63;;
10904;SDS011;5505;51.450;9.254;2024-02-21T07:08:52;12.10;;;5.87;;
10904;SDS011;5505;51.450;9.254;2024-02-21T07:11:39;10.97;;;6.47;;
10904;SDS011;5505;51.450;9.254;2024-02-21T07:14:25;11.07;;;5.90;;
10904;SDS011;5505;51.450;9.254;2024-02-21T07:17:13;8.60;;;5.27;;
10904;SDS011;5505;51.450;9.254;2024-02-21T07:20:00;9.50;;;5.37;;
10904;SDS011;5505;51.450;9.254;2024-02-21T07:22:47;9.30;;;5.50;;
10904;SDS011;5505;51.450;9.254;2024-02-21T07:25:36;9.00;;;5.50;;
10904;SDS011;5505;51.450;9.254;2024-02-21T07:28:22;11.83;;;5.67;;
10904;SDS011;5505;51.450;9.254;2024-02-21T07:31:09;10.60;;;5.40;;
10904;SDS011;5505;51.450;9.254;2024-02-21T07:33:56;12.37;;;5.20;;
10904;SDS011;5505;51.450;9.254;2024-02-21T07:36:43;9.90;;;5.00;;
10904;SDS011;5505;51.450;9.254;2024-02-21T07:39:30;10.13;;;5.70;;
10904;SDS011;5505;51.450;9.254;2024-02-21T07:42:18;7.40;;;4.77;;
10904;SDS011;5505;51.450;9.254;2024-02-21T07:45:05;10.20;;;4.87;;
10904;SDS011;5505;51.450;9.254;2024-02-21T07:47:53;9.27;;;5.23;;
10904;SDS011;5505;51.450;9.254;2024-02-21T07:50:39;9.10;;;4.60;;
10904;SDS011;5505;51.450;9.254;2024-02-21T07:53:26;8.50;;;4.77;;
10904;SDS011;5505;51.450;9.254;2024-02-21T07:56:13;9.17;;;4.87;;
10904;SDS011;5505;51.450;9.254;2024-02-21T07:59:02;8.87;;;4.77;;
10904;SDS011;5505;51.450;9.254;2024-02-21T08:01:48;10.70;;;4.47;;
10904;SDS011;5505;51.450;9.254;2024-02-21T08:04:35;11.77;;;4.27;;
10904;SDS011;5505;51.450;9.254;2024-02-21T08:07:23;8.63;;;3.87;;
10904;SDS011;5505;51.450;9.254;2024-02-21T08:10:09;7.27;;;4.33;;
10904;SDS011;5505;51.450;9.254;2024-02-21T08:12:56;10.17;;;4.47;;
10904;SDS011;5505;51.450;9.254;2024-02-21T08:15:44;9.00;;;4.27;;
10904;SDS011;5505;51.450;9.254;2024-02-21T08:18:31;9.37;;;4.30;;
10904;SDS011;5505;51.450;9.254;2024-02-21T08:21:21;6.40;;;3.97;;
10904;SDS011;5505;51.450;9.254;2024-02-21T08:24:08;10.33;;;4.60;;
10904;SDS011;5505;51.450;9.254;2024-02-21T08:26:55;10.63;;;4.03;;
10904;SDS011;5505;51.450;9.254;2024-02-21T08:29:42;7.27;;;4.10;;
10904;SDS011;5505;51.450;9.254;2024-02-21T08:32:30;9.23;;;4.37;;
10904;SDS011;5505;51.450;9.254;2024-02-21T08:35:17;6.73;;;3.70;;
10904;SDS011;5505;51.450;9.254;2024-02-21T08:38:04;8.13;;;3.80;;
10904;SDS011;5505;51.450;9.254;2024-02-21T08:40:51;7.40;;;3.70;;
10904;SDS011;5505;51.450;9.254;2024-02-21T08:43:38;6.77;;;3.57;;
10904;SDS011;5505;51.450;9.254;2024-02-21T08:46:25;5.03;;;3.17;;
10904;SDS011;5505;51.450;9.254;2024-02-21T08:49:13;5.83;;;3.23;;
10904;SDS011;5505;51.450;9.254;2024-02-21T08:52:00;8.00;;;3.40;;
10904;SDS011;5505;51.450;9.254;2024-02-21T08:54:47;7.73;;;4.00;;
10904;SDS011;5505;51.450;9.254;2024-02-21T08:57:34;7.73;;;3.60;;
10904;SDS011;5505;51.450;9.254;2024-02-21T09:00:21;6.43;;;3.30;;
10904;SDS011;5505;51.450;9.254;2024-02-21T09:03:12;6.70;;;3.33;;
10904;SDS011;5505;51.450;9.254;2024-02-21T09:06:00;8.10;;;3.30;;
10904;SDS011;5505;51.450;9.254;2024-02-21T09:08:47;7.03;;;3.20;;
10904;SDS011;5505;51.450;9.254;2024-02-21T09:11:33;8.70;;;3.57;;
10904;SDS011;5505;51.450;9.254;2024-02-21T09:14:20;6.57;;;3.10;;
10904;SDS011;5505;51.450;9.254;2024-02-21T09:17:07;8.23;;;3.23;;
10904;SDS011;5505;51.450;9.254;2024-02-21T09:19:54;10.23;;;3.83;;
10904;SDS011;5505;51.450;9.254;2024-02-21T09:22:45;11.07;;;4.20;;
10904;SDS011;5505;51.450;9.254;2024-02-21T09:25:32;9.90;;;3.40;;
10904;SDS011;5505;51.450;9.254;2024-02-21T09:28:19;4.03;;;2.90;;
10904;SDS011;5505;51.450;9.254;2024-02-21T09:31:05;5.63;;;3.07;;
10904;SDS011;5505;51.450;9.254;2024-02-21T09:33:52;7.20;;;3.30;;
10904;SDS011;5505;51.450;9.254;2024-02-21T09:36:39;8.57;;;3.63;;
10904;SDS011;5505;51.450;9.254;2024-02-21T09:39:27;6.30;;;3.63;;
10904;SDS011;5505;51.450;9.254;2024-02-21T09:42:14;6.80;;;3.37;;
10904;SDS011;5505;51.450;9.254;2024-02-21T09:45:07;5.63;;;3.30;;
10904;SDS011;5505;51.450;9.254;2024-02-21T09:47:59;4.77;;;3.20;;
10904;SDS011;5505;51.450;9.254;2024-02-21T09:50:59;7.07;;;3.57;;
10904;SDS011;5505;51.450;9.254;2024-02-21T09:53:47;10.53;;;4.40;;
10904;SDS011;5505;51.450;9.254;2024-02-21T09:56:36;9.30;;;4.90;;
10904;SDS011;5505;51.450;9.254;2024-02-21T09:59:24;7.07;;;4.00;;
10904;SDS011;5505;51.450;9.254;2024-02-21T10:02:13;7.10;;;3.73;;
10904;SDS011;5505;51.450;9.254;2024-02-21T10:05:00;7.73;;;4.00;;
10904;SDS011;5505;51.450;9.254;2024-02-21T10:07:49;8.37;;;3.70;;
10904;SDS011;5505;51.450;9.254;2024-02-21T10:10:42;7.50;;;3.87;;
10904;SDS011;5505;51.450;9.254;2024-02-21T10:13:31;6.17;;;3.40;;
10904;SDS011;5505;51.450;9.254;2024-02-21T10:16:17;7.00;;;3.73;;
10904;SDS011;5505;51.450;9.254;2024-02-21T10:19:04;7.43;;;3.77;;
10904;SDS011;5505;51.450;9.254;2024-02-21T10:21:59;10.07;;;4.20;;
10904;SDS011;5505;51.450;9.254;2024-02-21T10:24:48;6.47;;;3.47;;
10904;SDS011;5505;51.450;9.254;2024-02-21T10:27:35;6.83;;;3.40;;
10904;SDS011;5505;51.450;9.254;2024-02-21T10:30:24;7.07;;;3.70;;
10904;SDS011;5505;51.450;9.254;2024-02-21T10:33:10;6.00;;;3.17;;
10904;SDS011;5505;51.450;9.254;2024-02-21T10:36:06;7.23;;;3.07;;
10904;SDS011;5505;51.450;9.254;2024-02-21T10:38:54;7.13;;;2.80;;
10904;SDS011;5505;51.450;9.254;2024-02-21T10:41:41;9.07;;;3.20;;
10904;SDS011;5505;51.450;9.254;2024-02-21T10:44:30;5.50;;;2.73;;
10904;SDS011;5505;51.450;9.254;2024-02-21T10:47:19;6.60;;;2.77;;
10904;SDS011;5505;51.450;9.254;2024-02-21T10:50:08;9.50;;;2.50;;
10904;SDS011;5505;51.450;9.254;2024-02-21T10:53:02;5.17;;;2.10;;
10904;SDS011;5505;51.450;9.254;2024-02-21T10:55:56;7.23;;;2.83;;
10904;SDS011;5505;51.450;9.254;2024-02-21T10:58:58;9.50;;;2.90;;
10904;SDS011;5505;51.450;9.254;2024-02-21T11:01:47;6.13;;;2.60;;
10904;SDS011;5505;51.450;9.254;2024-02-21T11:04:35;5.43;;;2.57;;
10904;SDS011;5505;51.450;9.254;2024-02-21T11:07:23;6.37;;;2.73;;
10904;SDS011;5505;51.450;9.254;2024-02-21T11:10:20;8.50;;;2.57;;
10904;SDS011;5505;51.450;9.254;2024-02-21T11:13:07;7.37;;;2.70;;
10904;SDS011;5505;51.450;9.254;2024-02-21T11:15:54;8.93;;;2.70;;
10904;SDS011;5505;51.450;9.254;2024-02-21T11:18:51;7.90;;;2.43;;
10904;SDS011;5505;51.450;9.254;2024-02-21T11:21:39;6.83;;;2.57;;
10904;SDS011;5505;51.450;9.254;2024-02-21T11:24:27;6.83;;;2.40;;
10904;SDS011;5505;51.450;9.254;2024-02-21T11:27:15;8.10;;;2.50;;
10904;SDS011;5505;51.450;9.254;2024-02-21T11:30:05;7.47;;;2.73;;
10904;SDS011;5505;51.450;9.254;2024-02-21T11:32:58;6.27;;;2.77;;
10904;SDS011;5505;51.450;9.254;2024-02-21T11:35:46;5.57;;;2.37;;
10904;SDS011;5505;51.450;9.254;2024-02-21T11:38:34;7.70;;;2.60;;
10904;SDS011;5505;51.450;9.254;2024-02-21T11:41:21;7.73;;;2.67;;
10904;SDS011;5505;51.450;9.254;2024-02-21T11:44:07;6.53;;;2.50;;
10904;SDS011;5505;51.450;9.254;2024-02-21T11:46:54;5.30;;;2.37;;
10904;SDS011;5505;51.450;9.254;2024-02-21T11:49:43;6.40;;;2.60;;
10904;SDS011;5505;51.450;9.254;2024-02-21T11:52:32;5.77;;;2.10;;
10904;SDS011;5505;51.450;9.254;2024-02-21T11:55:20;8.07;;;2.80;;
10904;SDS011;5505;51.450;9.254;2024-02-21T11:58:07;7.23;;;2.37;;
10904;SDS011;5505;51.450;9.254;2024-02-21T12:00:54;5.00;;;2.10;;
10904;SDS011;5505;51.450;9.254;2024-02-21T12:03:42;3.80;;;2.00;;
10904;SDS011;5505;51.450;9.254;2024-02-21T12:06:34;6.53;;;2.20;;
10904;SDS011;5505;51.450;9.254;2024-02-21T12:09:22;5.63;;;2.23;;
10904;SDS011;5505;51.450;9.254;2024-02-21T12:12:11;6.83;;;2.13;;
10904;SDS011;5505;51.450;9.254;2024-02-21T12:14:57;3.70;;;2.03;;
10904;SDS011;5505;51.450;9.254;2024-02-21T12:17:44;5.40;;;2.43;;
10904;SDS011;5505;51.450;9.254;2024-02-21T12:20:31;6.47;;;2.43;;
10904;SDS011;5505;51.450;9.254;2024-02-21T12:23:18;6.63;;;2.23;;
10904;SDS011;5505;51.450;9.254;2024-02-21T12:26:05;7.50;;;2.87;;
10904;SDS011;5505;51.450;9.254;2024-02-21T12:28:54;8.07;;;2.90;;
10904;SDS011;5505;51.450;9.254;2024-02-21T12:31:41;6.43;;;2.37;;
10904;SDS011;5505;51.450;9.254;2024-02-21T12:34:28;8.73;;;2.80;;
10904;SDS011;5505;51.450;9.254;2024-02-21T12:37:17;8.27;;;2.80;;
10904;SDS011;5505;51.450;9.254;2024-02-21T12:40:05;5.77;;;2.70;;
10904;SDS011;5505;51.450;9.254;2024-02-21T12:42:52;5.80;;;2.70;;
10904;SDS011;5505;51.450;9.254;2024-02-21T12:45:40;6.67;;;2.60;;
10904;SDS011;5505;51.450;9.254;2024-02-21T12:48:27;6.50;;;2.83;;
10904;SDS011;5505;51.450;9.254;2024-02-21T12:51:14;5.77;;;2.70;;
10904;SDS011;5505;51.450;9.254;2024-02-21T12:54:05;7.53;;;2.53;;
10904;SDS011;5505;51.450;9.254;2024-02-21T12:56:55;5.67;;;2.50;;
10904;SDS011;5505;51.450;9.254;2024-02-21T12:59:42;11.27;;;2.63;;
10904;SDS011;5505;51.450;9.254;2024-02-21T13:02:30;5.53;;;2.60;;
10904;SDS011;5505;51.450;9.254;2024-02-21T13:05:17;6.33;;;2.57;;
10904;SDS011;5505;51.450;9.254;2024-02-21T13:08:03;4.13;;;2.40;;
10904;SDS011;5505;51.450;9.254;2024-02-21T13:10:51;7.57;;;2.70;;
10904;SDS011;5505;51.450;9.254;2024-02-21T13:13:38;4.90;;;2.00;;
10904;SDS011;5505;51.450;9.254;2024-02-21T13:16:24;7.50;;;2.60;;
10904;SDS011;5505;51.450;9.254;2024-02-21T13:19:13;5.07;;;2.43;;
10904;SDS011;5505;51.450;9.254;2024-02-21T13:22:02;7.00;;;2.20;;
10904;SDS011;5505;51.450;9.254;2024-02-21T13:24:49;8.63;;;2.90;;
10904;SDS011;5505;51.450;9.254;2024-02-21T13:27:36;7.10;;;3.50;;
10904;SDS011;5505;51.450;9.254;2024-02-21T13:30:22;7.23;;;2.70;;
10904;SDS011;5505;51.450;9.254;2024-02-21T13:33:10;9.17;;;3.20;;
10904;SDS011;5505;51.450;9.254;2024-02-21T13:35:58;8.67;;;3.30;;
10904;SDS011;5505;51.450;9.254;2024-02-21T13:38:47;9.97;;;2.70;;
10904;SDS011;5505;51.450;9.254;2024-02-21T13:41:34;6.07;;;2.90;;
10904;SDS011;5505;51.450;9.254;2024-02-21T13:44:20;20.33;;;13.23;;
10904;SDS011;5505;51.450;9.254;2024-02-21T13:47:08;8.13;;;3.90;;
10904;SDS011;5505;51.450;9.254;2024-02-21T13:49:56;7.13;;;3.63;;
10904;SDS011;5505;51.450;9.254;2024-02-21T13:52:44;13.47;;;7.87;;
10904;SDS011;5505;51.450;9.254;2024-02-21T13:55:31;17.03;;;9.47;;
10904;SDS011;5505;51.450;9.254;2024-02-21T13:58:18;8.80;;;4.07;;
10904;SDS011;5505;51.450;9.254;2024-02-21T14:01:06;5.03;;;2.30;;
10904;SDS011;5505;51.450;9.254;2024-02-21T14:03:53;6.57;;;3.10;;
10904;SDS011;5505;51.450;9.254;2024-02-21T14:06:40;7.03;;;3.27;;
10904;SDS011;5505;51.450;9.254;2024-02-21T14:09:29;6.97;;;3.17;;
10904;SDS011;5505;51.450;9.254;2024-02-21T14:12:17;6.50;;;3.27;;
10904;SDS011;5505;51.450;9.254;2024-02-21T14:15:06;7.17;;;3.00;;
10904;SDS011;5505;51.450;9.254;2024-02-21T14:17:54;11.83;;;3.27;;
10904;SDS011;5505;51.450;9.254;2024-02-21T14:20:41;7.07;;;2.57;;
10904;SDS011;5505;51.450;9.254;2024-02-21T14:23:28;7.73;;;2.93;;
10904;SDS011;5505;51.450;9.254;2024-02-21T14:26:16;6.83;;;2.90;;
10904;SDS011;5505;51.450;9.254;2024-02-21T14:29:03;6.77;;;3.00;;
10904;SDS011;5505;51.450;9.254;2024-02-21T14:31:50;5.40;;;2.70;;
10904;SDS011;5505;51.450;9.254;2024-02-21T14:34:37;10.57;;;3.00;;
10904;SDS011;5505;51.450;9.254;2024-02-21T14:37:23;7.40;;;2.60;;
10904;SDS011;5505;51.450;9.254;2024-02-21T14:40:11;8.03;;;3.03;;
10904;SDS011;5505;51.450;9.254;2024-02-21T14:42:59;8.03;;;2.97;;
10904;SDS011;5505;51.450;9.254;2024-02-21T14:45:46;5.93;;;2.53;;
10904;SDS011;5505;51.450;9.254;2024-02-21T14:48:33;6.07;;;2.80;;
10904;SDS011;5505;51.450;9.254;2024-02-21T14:51:21;4.33;;;2.63;;
10904;SDS011;5505;51.450;9.254;2024-02-21T14:54:08;7.83;;;2.40;;
10904;SDS011;5505;51.450;9.254;2024-02-21T14:56:55;8.40;;;3.07;;
10904;SDS011;5505;51.450;9.254;2024-02-21T14:59:43;7.00;;;2.70;;
10904;SDS011;5505;51.450;9.254;2024-02-21T15:02:30;4.77;;;2.30;;
10904;SDS011;5505;51.450;9.254;2024-02-21T15:05:17;7.43;;;2.60;;
10904;SDS011;5505;51.450;9.254;2024-02-21T15:08:04;7.73;;;2.77;;
10904;SDS011;5505;51.450;9.254;2024-02-21T15:10:52;9.63;;;2.93;;
10904;SDS011;5505;51.450;9.254;2024-02-21T15:13:39;8.10;;;2.60;;
10904;SDS011;5505;51.450;9.254;2024-02-21T15:16:27;5.20;;;2.47;;
10904;SDS011;5505;51.450;9.254;2024-02-21T15:19:14;5.10;;;2.60;;
10904;SDS011;5505;51.450;9.254;2024-02-21T15:22:01;6.23;;;2.80;;
10904;SDS011;5505;51.450;9.254;2024-02-21T15:24:48;9.70;;;3.13;;
10904;SDS011;5505;51.450;9.254;2024-02-21T15:27:35;7.77;;;3.40;;
10904;SDS011;5505;51.450;9.254;2024-02-21T15:30:22;6.50;;;3.00;;
10904;SDS011;5505;51.450;9.254;2024-02-21T15:33:10;6.33;;;3.80;;
10904;SDS011;5505;51.450;9.254;2024-02-21T15:35:56;6.43;;;3.60;;
10904;SDS011;5505;51.450;9.254;2024-02-21T15:38:43;7.63;;;3.60;;
10904;SDS011;5505;51.450;9.254;2024-02-21T15:41:31;8.63;;;3.97;;
10904;SDS011;5505;51.450;9.254;2024-02-21T15:44:18;6.20;;;3.70;;
10904;SDS011;5505;51.450;9.254;2024-02-21T15:47:06;7.03;;;3.90;;
10904;SDS011;5505;51.450;9.254;2024-02-21T15:49:54;10.87;;;4.47;;
10904;SDS011;5505;51.450;9.254;2024-02-21T15:52:41;8.87;;;4.10;;
10904;SDS011;5505;51.450;9.254;2024-02-21T15:55:27;7.17;;;3.97;;
10904;SDS011;5505;51.450;9.254;2024-02-21T15:58:14;6.93;;;3.60;;
10904;SDS011;5505;51.450;9.254;2024-02-21T16:01:04;6.70;;;4.03;;
10904;SDS011;5505;51.450;9.254;2024-02-21T16:03:51;7.90;;;3.97;;
10904;SDS011;5505;51.450;9.254;2024-02-21T16:06:42;9.03;;;4.90;;
10904;SDS011;5505;51.450;9.254;2024-02-21T16:09:31;9.20;;;4.03;;
10904;SDS011;5505;51.450;9.254;2024-02-21T16:12:18;6.53;;;3.83;;
10904;SDS011;5505;51.450;9.254;2024-02-21T16:15:05;7.07;;;3.90;;
10904;SDS011;5505;51.450;9.254;2024-02-21T16:17:53;9.00;;;3.93;;
10904;SDS011;5505;51.450;9.254;2024-02-21T16:20:40;8.03;;;3.80;;
10904;SDS011;5505;51.450;9.254;2024-02-21T16:23:28;7.17;;;3.80;;
10904;SDS011;5505;51.450;9.254;2024-02-21T16:26:14;11.70;;;4.60;;
10904;SDS011;5505;51.450;9.254;2024-02-21T16:29:01;8.83;;;4.30;;
10904;SDS011;5505;51.450;9.254;2024-02-21T16:31:48;9.93;;;4.53;;
10904;SDS011;5505;51.450;9.254;2024-02-21T16:34:35;6.90;;;4.00;;
10904;SDS011;5505;51.450;9.254;2024-02-21T16:37:22;6.87;;;3.77;;
10904;SDS011;5505;51.450;9.254;2024-02-21T16:40:11;7.73;;;3.33;;
10904;SDS011;5505;51.450;9.254;2024-02-21T16:42:58;11.20;;;3.60;;
10904;SDS011;5505;51.450;9.254;2024-02-21T16:45:47;6.73;;;3.60;;
10904;SDS011;5505;51.450;9.254;2024-02-21T16:48:36;8.53;;;4.00;;
10904;SDS011;5505;51.450;9.254;2024-02-21T16:51:23;9.00;;;3.30;;
10904;SDS011;5505;51.450;9.254;2024-02-21T16:54:10;6.57;;;3.10;;
10904;SDS011;5505;51.450;9.254;2024-02-21T16:56:58;6.57;;;3.77;;
10904;SDS011;5505;51.450;9.254;2024-02-21T16:59:45;8.67;;;3.67;;